Terminal Aerodrome Forecast
Issued by NWS

Home | Current Version | Previous Version | Text Only | Print | Product List | Glossary On
Versions: 1 2 3 4 5 6 7 8 9 10 11 12 13 14 15 16 17 18 19 20
000
FTUS46 KSTO 162124 AAA
TAFSMF
TAF AMD
KSMF 162124Z 1621/1718 VRB03KT P6SM FEW015 SCT250
     FM170500 16004KT 1 1/2SM BR SCT001
     FM170900 00000KT 1/4SM FG VV001=

USA.gov is the U.S. government's official web portal to all federal, state and local government web resources and services.